sensor_id;sensor_type;location;lat;lon;timestamp;pressure;altitude;pressure_sealevel;temperature;humidity
9129;BME280;4599;50.906;6.786;2023-03-25T09:42:26;16169.44;;;-142.83;58.12
9129;BME280;4599;50.906;6.786;2023-03-25T09:46:30;16208.31;;;-142.83;57.89
9129;BME280;4599;50.906;6.786;2023-03-25T09:50:33;16153.09;;;-142.83;59.06
9129;BME280;4599;50.906;6.786;2023-03-25T09:55:03;16198.06;;;-142.83;58.81
9129;BME280;4599;50.906;6.786;2023-03-25T09:59:12;16194.00;;;-142.83;57.98
9129;BME280;4599;50.906;6.786;2023-03-25T10:03:19;16200.13;;;-142.83;57.79
9129;BME280;4599;50.906;6.786;2023-03-25T10:07:34;16169.44;;;-142.83;58.22
9129;BME280;4599;50.906;6.786;2023-03-25T10:11:44;16179.66;;;-142.83;58.43
9129;BME280;4599;50.906;6.786;2023-03-25T10:15:54;16124.47;;;-142.83;58.42
9129;BME280;4599;50.906;6.786;2023-03-25T10:20:00;16138.78;;;-142.83;61.47
9129;BME280;4599;50.906;6.786;2023-03-25T10:24:15;16108.09;;;-142.83;61.84
9129;BME280;4599;50.906;6.786;2023-03-25T10:28:19;16146.97;;;-142.83;61.82
9129;BME280;4599;50.906;6.786;2023-03-25T10:32:31;16177.63;;;-142.83;61.27
9129;BME280;4599;50.906;6.786;2023-03-25T10:36:37;16576.38;;;-142.83;56.97
9129;BME280;4599;50.906;6.786;2023-03-25T10:40:42;16682.72;;;-142.83;51.39
9129;BME280;4599;50.906;6.786;2023-03-25T10:44:47;16331.00;;;-142.83;54.14
9129;BME280;4599;50.906;6.786;2023-03-25T10:48:51;16328.94;;;-142.83;54.90
9129;BME280;4599;50.906;6.786;2023-03-25T10:52:55;16312.59;;;-142.83;54.62
9129;BME280;4599;50.906;6.786;2023-03-25T10:56:58;16161.28;;;-142.83;60.51
9129;BME280;4599;50.906;6.786;2023-03-25T11:01:09;16136.72;;;-142.83;60.03
9129;BME280;4599;50.906;6.786;2023-03-25T11:05:17;16173.53;;;-142.83;60.56
9129;BME280;4599;50.906;6.786;2023-03-25T11:09:22;16212.38;;;-142.83;61.99
9129;BME280;4599;50.906;6.786;2023-03-25T11:13:26;16255.34;;;-142.83;58.62
9129;BME280;4599;50.906;6.786;2023-03-25T11:17:32;16214.44;;;-142.83;57.59
9129;BME280;4599;50.906;6.786;2023-03-25T11:21:36;16288.06;;;-142.83;56.76
9129;BME280;4599;50.906;6.786;2023-03-25T11:25:38;16200.13;;;-142.83;56.44
9129;BME280;4599;50.906;6.786;2023-03-25T11:29:40;16261.47;;;-142.83;56.02
9129;BME280;4599;50.906;6.786;2023-03-25T11:33:44;16216.47;;;-142.83;56.15
9129;BME280;4599;50.906;6.786;2023-03-25T11:37:53;16249.19;;;-142.83;55.17
9129;BME280;4599;50.906;6.786;2023-03-25T11:41:56;16310.53;;;-142.83;55.40
9129;BME280;4599;50.906;6.786;2023-03-25T11:46:06;16283.97;;;-142.83;55.56
9129;BME280;4599;50.906;6.786;2023-03-25T11:50:18;16271.69;;;-142.83;56.02
9129;BME280;4599;50.906;6.786;2023-03-25T11:54:25;16279.88;;;-142.83;55.37
9129;BME280;4599;50.906;6.786;2023-03-25T11:58:29;16271.69;;;-142.83;55.84
9129;BME280;4599;50.906;6.786;2023-03-25T12:02:36;16335.09;;;-142.83;53.99
9129;BME280;4599;50.906;6.786;2023-03-25T12:06:53;16318.72;;;-142.83;54.18
9129;BME280;4599;50.906;6.786;2023-03-25T12:11:00;16351.44;;;-142.83;53.19
9129;BME280;4599;50.906;6.786;2023-03-25T12:15:10;16418.91;;;-142.83;51.56
9129;BME280;4599;50.906;6.786;2023-03-25T12:19:21;16637.72;;;-142.83;51.32
9129;BME280;4599;50.906;6.786;2023-03-25T12:23:36;16611.16;;;-142.83;48.70
9129;BME280;4599;50.906;6.786;2023-03-25T12:27:51;16484.34;;;-142.83;49.73
9129;BME280;4599;50.906;6.786;2023-03-25T12:32:10;16695.00;;;-142.83;48.36
9129;BME280;4599;50.906;6.786;2023-03-25T12:36:26;16574.34;;;-142.83;47.22
9129;BME280;4599;50.906;6.786;2023-03-25T12:40:39;16823.84;;;-142.83;45.88
9129;BME280;4599;50.906;6.786;2023-03-25T12:44:59;16619.34;;;-142.83;45.44
9129;BME280;4599;50.906;6.786;2023-03-25T12:49:23;16754.31;;;-142.83;45.49
9129;BME280;4599;50.906;6.786;2023-03-25T12:53:54;16742.03;;;-142.83;46.20
9129;BME280;4599;50.906;6.786;2023-03-25T12:58:25;16746.13;;;-142.83;46.54
9129;BME280;4599;50.906;6.786;2023-03-25T13:03:03;16582.53;;;-142.83;47.15
9129;BME280;4599;50.906;6.786;2023-03-25T13:07:13;16500.72;;;-142.83;48.28
9129;BME280;4599;50.906;6.786;2023-03-25T13:11:19;16527.31;;;-142.83;48.38
9129;BME280;4599;50.906;6.786;2023-03-25T13:15:23;16498.69;;;-142.83;49.03
9129;BME280;4599;50.906;6.786;2023-03-25T13:19:31;16486.41;;;-142.83;47.64
9129;BME280;4599;50.906;6.786;2023-03-25T13:23:38;16476.19;;;-142.83;47.55
9129;BME280;4599;50.906;6.786;2023-03-25T13:27:41;16410.75;;;-142.83;48.68
9129;BME280;4599;50.906;6.786;2023-03-25T13:31:44;16425.06;;;-142.83;48.83
9129;BME280;4599;50.906;6.786;2023-03-25T13:35:53;16392.34;;;-142.83;49.25
9129;BME280;4599;50.906;6.786;2023-03-25T13:40:19;16267.59;;;-142.83;55.38
9129;BME280;4599;50.906;6.786;2023-03-25T13:44:26;16163.31;;;-142.83;58.58
9129;BME280;4599;50.906;6.786;2023-03-25T13:48:34;16036.53;;;-142.83;66.91
9129;BME280;4599;50.906;6.786;2023-03-25T13:52:47;15903.63;;;-142.83;76.90
9129;BME280;4599;50.906;6.786;2023-03-25T13:57:07;15852.53;;;-142.83;78.47
9129;BME280;4599;50.906;6.786;2023-03-25T14:01:30;15821.84;;;-142.83;78.34
9129;BME280;4599;50.906;6.786;2023-03-25T14:06:02;15836.16;;;-142.83;79.10
9129;BME280;4599;50.906;6.786;2023-03-25T14:14:58;15887.28;;;-142.83;77.52
9129;BME280;4599;50.906;6.786;2023-03-25T14:19:04;15895.47;;;-142.83;76.23
9129;BME280;4599;50.906;6.786;2023-03-25T14:23:12;15932.25;;;-142.83;77.78
9129;BME280;4599;50.906;6.786;2023-03-25T14:27:16;15999.72;;;-142.83;76.62
9129;BME280;4599;50.906;6.786;2023-03-25T14:31:29;16016.09;;;-142.83;74.71
9129;BME280;4599;50.906;6.786;2023-03-25T14:35:49;15979.28;;;-142.83;71.89
9129;BME280;4599;50.906;6.786;2023-03-25T14:39:53;15952.72;;;-142.83;72.17
9129;BME280;4599;50.906;6.786;2023-03-25T14:44:09;15997.69;;;-142.83;71.22
9129;BME280;4599;50.906;6.786;2023-03-25T14:48:27;16052.91;;;-142.83;68.95
9129;BME280;4599;50.906;6.786;2023-03-25T14:52:31;16048.81;;;-142.83;68.97
9129;BME280;4599;50.906;6.786;2023-03-25T14:56:35;16048.81;;;-142.83;68.91
9129;BME280;4599;50.906;6.786;2023-03-25T15:00:41;15997.69;;;-142.83;69.50
9129;BME280;4599;50.906;6.786;2023-03-25T15:04:53;16003.81;;;-142.83;70.78
9129;BME280;4599;50.906;6.786;2023-03-25T15:08:57;15991.56;;;-142.83;68.55
9129;BME280;4599;50.906;6.786;2023-03-25T15:13:02;15979.28;;;-142.83;69.26
9129;BME280;4599;50.906;6.786;2023-03-25T15:17:05;16018.13;;;-142.83;68.26
9129;BME280;4599;50.906;6.786;2023-03-25T15:21:13;16030.41;;;-142.83;68.39
9129;BME280;4599;50.906;6.786;2023-03-25T15:25:16;15999.72;;;-142.83;69.41
9129;BME280;4599;50.906;6.786;2023-03-25T15:29:30;16075.38;;;-142.83;67.34
9129;BME280;4599;50.906;6.786;2023-03-25T15:33:56;16034.50;;;-142.83;67.43
9129;BME280;4599;50.906;6.786;2023-03-25T15:47:43;16171.50;;;-142.83;58.76
9129;BME280;4599;50.906;6.786;2023-03-25T15:52:03;16169.44;;;-142.83;58.63
9129;BME280;4599;50.906;6.786;2023-03-25T15:56:11;16167.41;;;-142.83;58.87
9129;BME280;4599;50.906;6.786;2023-03-25T16:00:21;16189.91;;;-142.83;59.34
9129;BME280;4599;50.906;6.786;2023-03-25T16:04:31;16253.28;;;-142.83;57.42
9129;BME280;4599;50.906;6.786;2023-03-25T16:08:41;16257.38;;;-142.83;55.76
9129;BME280;4599;50.906;6.786;2023-03-25T16:12:45;16255.34;;;-142.83;55.43
9129;BME280;4599;50.906;6.786;2023-03-25T16:16:50;16267.59;;;-142.83;55.55
9129;BME280;4599;50.906;6.786;2023-03-25T16:20:58;16251.25;;;-142.83;54.64
9129;BME280;4599;50.906;6.786;2023-03-25T16:25:03;16251.25;;;-142.83;55.24
9129;BME280;4599;50.906;6.786;2023-03-25T16:29:08;16261.47;;;-142.83;54.49
9129;BME280;4599;50.906;6.786;2023-03-25T16:33:17;16234.88;;;-142.83;56.11
9129;BME280;4599;50.906;6.786;2023-03-25T16:37:20;16175.59;;;-142.83;54.79
9129;BME280;4599;50.906;6.786;2023-03-25T16:41:23;16226.69;;;-142.83;55.64
9129;BME280;4599;50.906;6.786;2023-03-25T16:45:25;16241.03;;;-142.83;54.58
9129;BME280;4599;50.906;6.786;2023-03-25T16:49:30;16243.06;;;-142.83;54.76
9129;BME280;4599;50.906;6.786;2023-03-25T16:53:35;16208.31;;;-142.83;55.77
9129;BME280;4599;50.906;6.786;2023-03-25T16:57:38;16020.19;;;-142.83;65.79
9129;BME280;4599;50.906;6.786;2023-03-25T17:01:43;15983.38;;;-142.83;70.59
9129;BME280;4599;50.906;6.786;2023-03-25T17:06:02;15934.31;;;-142.83;71.50
9129;BME280;4599;50.906;6.786;2023-03-25T17:10:16;15960.88;;;-142.83;72.50
9129;BME280;4599;50.906;6.786;2023-03-25T17:14:23;15954.75;;;-142.83;71.32
9129;BME280;4599;50.906;6.786;2023-03-25T17:18:29;15938.41;;;-142.83;72.66
9129;BME280;4599;50.906;6.786;2023-03-25T17:22:34;15928.16;;;-142.83;72.05
9129;BME280;4599;50.906;6.786;2023-03-25T17:26:55;15981.34;;;-142.83;68.96
9129;BME280;4599;50.906;6.786;2023-03-25T17:31:00;15973.16;;;-142.83;68.69
9129;BME280;4599;50.906;6.786;2023-03-25T17:35:19;15979.28;;;-142.83;68.78
9129;BME280;4599;50.906;6.786;2023-03-25T17:39:22;15924.09;;;-142.83;70.04
9129;BME280;4599;50.906;6.786;2023-03-25T17:43:26;15989.50;;;-142.83;69.10
9129;BME280;4599;50.906;6.786;2023-03-25T17:47:29;15948.63;;;-142.83;69.68
9129;BME280;4599;50.906;6.786;2023-03-25T17:51:30;15981.34;;;-142.83;69.06
9129;BME280;4599;50.906;6.786;2023-03-25T17:55:32;15950.66;;;-142.83;69.73
9129;BME280;4599;50.906;6.786;2023-03-25T17:59:36;15981.34;;;-142.83;68.59
9129;BME280;4599;50.906;6.786;2023-03-25T18:03:38;15985.41;;;-142.83;68.14
9129;BME280;4599;50.906;6.786;2023-03-25T18:07:39;15987.47;;;-142.83;68.49
9129;BME280;4599;50.906;6.786;2023-03-25T18:11:42;15985.41;;;-142.83;69.33
9129;BME280;4599;50.906;6.786;2023-03-25T18:15:47;16030.41;;;-142.83;69.19
9129;BME280;4599;50.906;6.786;2023-03-25T18:19:48;15971.09;;;-142.83;69.78
9129;BME280;4599;50.906;6.786;2023-03-25T18:23:50;15932.25;;;-142.83;72.09
9129;BME280;4599;50.906;6.786;2023-03-25T18:27:59;15879.09;;;-142.83;74.35
9129;BME280;4599;50.906;6.786;2023-03-25T18:32:03;15887.28;;;-142.83;77.06
9129;BME280;4599;50.906;6.786;2023-03-25T18:36:07;15834.13;;;-142.83;79.26
9129;BME280;4599;50.906;6.786;2023-03-25T18:40:20;15838.22;;;-142.83;78.05
9129;BME280;4599;50.906;6.786;2023-03-25T18:44:22;15838.22;;;-142.83;80.60
9129;BME280;4599;50.906;6.786;2023-03-25T18:48:25;15842.28;;;-142.83;80.25
9129;BME280;4599;50.906;6.786;2023-03-25T18:52:27;15836.16;;;-142.83;81.63
9129;BME280;4599;50.906;6.786;2023-03-25T18:56:29;15799.34;;;-142.83;83.14
9129;BME280;4599;50.906;6.786;2023-03-25T19:00:34;15789.13;;;-142.83;82.86
9129;BME280;4599;50.906;6.786;2023-03-25T19:04:37;15760.50;;;-142.83;83.40
9129;BME280;4599;50.906;6.786;2023-03-25T19:09:00;15854.56;;;-142.83;80.20
9129;BME280;4599;50.906;6.786;2023-03-25T19:13:01;15856.59;;;-142.83;80.52
9129;BME280;4599;50.906;6.786;2023-03-25T19:17:03;15834.13;;;-142.83;82.91
9129;BME280;4599;50.906;6.786;2023-03-25T19:21:34;15817.75;;;-142.83;81.16
9129;BME280;4599;50.906;6.786;2023-03-25T19:25:36;15815.72;;;-142.83;81.64
9129;BME280;4599;50.906;6.786;2023-03-25T19:29:39;15856.59;;;-142.83;78.82
9129;BME280;4599;50.906;6.786;2023-03-25T19:33:50;15856.59;;;-142.83;79.83
9129;BME280;4599;50.906;6.786;2023-03-25T19:37:56;15830.03;;;-142.83;78.66
9129;BME280;4599;50.906;6.786;2023-03-25T19:41:58;15852.53;;;-142.83;78.79
9129;BME280;4599;50.906;6.786;2023-03-25T19:46:00;15852.53;;;-142.83;78.27
9129;BME280;4599;50.906;6.786;2023-03-25T19:50:03;15830.03;;;-142.83;77.93
9129;BME280;4599;50.906;6.786;2023-03-25T19:54:06;15854.56;;;-142.83;76.33
9129;BME280;4599;50.906;6.786;2023-03-25T19:58:08;15883.19;;;-142.83;76.05
9129;BME280;4599;50.906;6.786;2023-03-25T20:02:11;15881.16;;;-142.83;77.68
9129;BME280;4599;50.906;6.786;2023-03-25T20:06:13;15862.75;;;-142.83;78.04
9129;BME280;4599;50.906;6.786;2023-03-25T20:10:18;15877.06;;;-142.83;75.49
9129;BME280;4599;50.906;6.786;2023-03-25T20:14:22;15907.72;;;-142.83;76.33
9129;BME280;4599;50.906;6.786;2023-03-25T20:18:24;15850.47;;;-142.83;76.22
9129;BME280;4599;50.906;6.786;2023-03-25T20:22:26;15864.78;;;-142.83;75.00
9129;BME280;4599;50.906;6.786;2023-03-25T20:26:29;15911.81;;;-142.83;73.52
9129;BME280;4599;50.906;6.786;2023-03-25T20:30:33;15915.91;;;-142.83;73.93
9129;BME280;4599;50.906;6.786;2023-03-25T20:34:35;15877.06;;;-142.83;76.66
9129;BME280;4599;50.906;6.786;2023-03-25T20:38:37;15866.84;;;-142.83;77.49
9129;BME280;4599;50.906;6.786;2023-03-25T20:42:49;15854.56;;;-142.83;78.06
9129;BME280;4599;50.906;6.786;2023-03-25T20:46:51;15866.84;;;-142.83;76.69
9129;BME280;4599;50.906;6.786;2023-03-25T20:51:00;15881.16;;;-142.83;76.52
9129;BME280;4599;50.906;6.786;2023-03-25T20:55:02;15889.31;;;-142.83;76.36
9129;BME280;4599;50.906;6.786;2023-03-25T20:59:05;15866.84;;;-142.83;77.08
9129;BME280;4599;50.906;6.786;2023-03-25T21:03:07;15899.53;;;-142.83;76.43
9129;BME280;4599;50.906;6.786;2023-03-25T21:07:09;15887.28;;;-142.83;76.26
9129;BME280;4599;50.906;6.786;2023-03-25T21:11:10;15891.38;;;-142.83;75.97
9129;BME280;4599;50.906;6.786;2023-03-25T21:15:13;15915.91;;;-142.83;74.17
9129;BME280;4599;50.906;6.786;2023-03-25T21:19:17;15911.81;;;-142.83;72.61
9129;BME280;4599;50.906;6.786;2023-03-25T21:23:20;15891.38;;;-142.83;74.70
9129;BME280;4599;50.906;6.786;2023-03-25T21:27:21;15928.16;;;-142.83;73.57
9129;BME280;4599;50.906;6.786;2023-03-25T21:31:40;15879.09;;;-142.83;73.25
9129;BME280;4599;50.906;6.786;2023-03-25T21:35:44;15928.16;;;-142.83;72.32
9129;BME280;4599;50.906;6.786;2023-03-25T21:39:55;15946.56;;;-142.83;70.75
9129;BME280;4599;50.906;6.786;2023-03-25T21:43:56;15938.41;;;-142.83;70.96
9129;BME280;4599;50.906;6.786;2023-03-25T21:48:00;15934.31;;;-142.83;71.24
9129;BME280;4599;50.906;6.786;2023-03-25T21:52:02;15948.63;;;-142.83;71.06
9129;BME280;4599;50.906;6.786;2023-03-25T21:56:04;15946.56;;;-142.83;69.85
9129;BME280;4599;50.906;6.786;2023-03-25T22:00:07;15948.63;;;-142.83;69.21
9129;BME280;4599;50.906;6.786;2023-03-25T22:04:11;15973.16;;;-142.83;69.23
9129;BME280;4599;50.906;6.786;2023-03-25T22:08:14;15969.06;;;-142.83;69.87
9129;BME280;4599;50.906;6.786;2023-03-25T22:12:16;15999.72;;;-142.83;69.02
9129;BME280;4599;50.906;6.786;2023-03-25T22:16:20;15973.16;;;-142.83;69.46
9129;BME280;4599;50.906;6.786;2023-03-25T22:20:23;15981.34;;;-142.83;67.42
9129;BME280;4599;50.906;6.786;2023-03-25T22:24:24;15983.38;;;-142.83;68.08
9129;BME280;4599;50.906;6.786;2023-03-25T22:28:26;15985.41;;;-142.83;68.24
9129;BME280;4599;50.906;6.786;2023-03-25T22:32:28;16007.91;;;-142.83;67.84
9129;BME280;4599;50.906;6.786;2023-03-25T22:36:34;15993.59;;;-142.83;67.05
9129;BME280;4599;50.906;6.786;2023-03-25T22:40:35;16016.09;;;-142.83;67.27
9129;BME280;4599;50.906;6.786;2023-03-25T22:44:37;15969.06;;;-142.83;67.99
9129;BME280;4599;50.906;6.786;2023-03-25T22:48:39;16024.28;;;-142.83;67.10
9129;BME280;4599;50.906;6.786;2023-03-25T22:52:50;15995.66;;;-142.83;67.28
9129;BME280;4599;50.906;6.786;2023-03-25T22:56:52;15981.34;;;-142.83;67.93
9129;BME280;4599;50.906;6.786;2023-03-25T23:00:58;16009.97;;;-142.83;67.20
9129;BME280;4599;50.906;6.786;2023-03-25T23:04:59;15997.69;;;-142.83;67.24
9129;BME280;4599;50.906;6.786;2023-03-25T23:09:06;15973.16;;;-142.83;68.57
9129;BME280;4599;50.906;6.786;2023-03-25T23:13:08;15981.34;;;-142.83;68.20
9129;BME280;4599;50.906;6.786;2023-03-25T23:17:10;15995.66;;;-142.83;68.16
9129;BME280;4599;50.906;6.786;2023-03-25T23:21:14;15977.25;;;-142.83;68.97
9129;BME280;4599;50.906;6.786;2023-03-25T23:25:19;15981.34;;;-142.83;68.42
9129;BME280;4599;50.906;6.786;2023-03-25T23:29:22;16020.19;;;-142.83;67.98
9129;BME280;4599;50.906;6.786;2023-03-25T23:33:23;15985.41;;;-142.83;70.13
9129;BME280;4599;50.906;6.786;2023-03-25T23:37:25;15971.09;;;-142.83;72.02
9129;BME280;4599;50.906;6.786;2023-03-25T23:41:28;15964.97;;;-142.83;72.30
9129;BME280;4599;50.906;6.786;2023-03-25T23:45:30;15911.81;;;-142.83;72.87
9129;BME280;4599;50.906;6.786;2023-03-25T23:49:32;15969.06;;;-142.83;69.40
9129;BME280;4599;50.906;6.786;2023-03-25T23:53:33;15991.56;;;-142.83;70.01
9129;BME280;4599;50.906;6.786;2023-03-25T23:57:37;15969.06;;;-142.83;71.53
